Time;durP1;ratioP1;P1;durP2;ratioP2;P2;SDS_P1;SDS_P2;PMS_P1;PMS_P2;Temp;Humidity;BMP_temperature;BMP_pressure;BME280_temperature;BME280_humidity;BME280_pressure;Samples;Min_cycle;Max_cycle;Signal;HPM_P1;HPM_P2
2023/12/29 00:00:52;;;;;;;8.20;4.90;;;;;;;;;;80994;283;3028513;-32
2023/12/29 00:03:47;;;;;;;8.80;5.10;;;;;;;;;;81032;275;3028227;-33
2023/12/29 00:06:24;;;;;;;9.10;5.30;;;;;;;;;;81011;280;3031143;-32
2023/12/29 00:09:02;;;;;;;8.20;5.40;;;;;;;;;;81074;275;3031628;-32
2023/12/29 00:11:39;;;;;;;8.60;5.10;;;;;;;;;;81062;272;3029110;-32
2023/12/29 00:14:16;;;;;;;7.80;5.20;;;;;;;;;;81041;275;3028096;-33
2023/12/29 00:16:57;;;;;;;7.90;5.00;;;;;;;;;;81056;275;3032024;-33
2023/12/29 00:19:35;;;;;;;8.50;5.10;;;;;;;;;;81039;275;3032260;-32
2023/12/29 00:22:11;;;;;;;8.00;5.00;;;;;;;;;;81027;275;3028822;-33
2023/12/29 00:24:48;;;;;;;8.70;4.90;;;;;;;;;;81034;275;3028330;-32
2023/12/29 00:27:29;;;;;;;8.90;5.30;;;;;;;;;;81064;275;3031756;-32
2023/12/29 00:30:08;;;;;;;7.90;4.90;;;;;;;;;;81040;275;3031571;-32
2023/12/29 00:32:45;;;;;;;9.70;5.00;;;;;;;;;;82342;275;3030102;-33
2023/12/29 00:35:20;;;;;;;7.80;4.70;;;;;;;;;;82390;283;3027268;-33
2023/12/29 00:37:56;;;;;;;8.20;4.70;;;;;;;;;;82396;272;3030896;-33
2023/12/29 00:40:32;;;;;;;8.50;4.90;;;;;;;;;;82380;275;3031477;-33
2023/12/29 00:43:08;;;;;;;7.70;4.60;;;;;;;;;;82451;280;3028799;-33
2023/12/29 00:45:45;;;;;;;8.20;4.80;;;;;;;;;;82386;272;3027691;-33
2023/12/29 00:48:20;;;;;;;8.00;4.90;;;;;;;;;;82478;279;3030766;-33
2023/12/29 00:50:57;;;;;;;8.00;4.80;;;;;;;;;;82440;272;3032466;-33
2023/12/29 00:53:33;;;;;;;8.10;4.60;;;;;;;;;;82419;279;3028630;-33
2023/12/29 00:56:13;;;;;;;9.20;5.40;;;;;;;;;;82418;280;3034402;-33
2023/12/29 00:58:49;;;;;;;8.10;4.60;;;;;;;;;;82340;291;3030456;-33
2023/12/29 01:01:25;;;;;;;8.10;4.90;;;;;;;;;;82438;279;3031858;-33
2023/12/29 01:04:01;;;;;;;7.90;4.60;;;;;;;;;;82391;275;3028568;-33
2023/12/29 01:06:38;;;;;;;7.70;4.60;;;;;;;;;;82494;272;3034818;-33
2023/12/29 01:09:14;;;;;;;6.80;4.60;;;;;;;;;;82424;280;3030567;-33
2023/12/29 01:11:50;;;;;;;7.10;4.50;;;;;;;;;;82443;272;3031683;-33
2023/12/29 01:14:26;;;;;;;7.10;4.80;;;;;;;;;;82349;275;3028538;-33
2023/12/29 01:17:02;;;;;;;7.50;4.70;;;;;;;;;;82458;272;3028566;-33
2023/12/29 01:19:38;;;;;;;6.70;4.50;;;;;;;;;;82340;283;3031592;-33
2023/12/29 01:22:15;;;;;;;7.50;4.50;;;;;;;;;;82212;275;3031444;-33
2023/12/29 01:24:52;;;;;;;7.50;4.60;;;;;;;;;;81002;283;3028386;-32
2023/12/29 01:27:29;;;;;;;7.00;4.40;;;;;;;;;;81025;275;3028544;-32
2023/12/29 01:30:08;;;;;;;7.20;4.50;;;;;;;;;;81050;275;3030918;-32
2023/12/29 01:32:47;;;;;;;7.20;4.50;;;;;;;;;;81504;272;3031264;-33
2023/12/29 01:35:26;;;;;;;7.40;4.50;;;;;;;;;;80987;275;3027927;-33
2023/12/29 01:38:07;;;;;;;8.10;4.70;;;;;;;;;;80960;275;3028058;-33
2023/12/29 01:40:49;;;;;;;6.80;4.40;;;;;;;;;;81033;283;3031193;-32
2023/12/29 01:43:25;;;;;;;7.40;4.50;;;;;;;;;;81053;283;3032222;-32
2023/12/29 01:46:03;;;;;;;7.10;4.50;;;;;;;;;;80986;275;3028323;-32
2023/12/29 01:48:41;;;;;;;7.50;4.50;;;;;;;;;;80977;272;3027384;-32
2023/12/29 01:51:20;;;;;;;7.40;4.20;;;;;;;;;;81005;272;3030658;-33
2023/12/29 01:53:59;;;;;;;7.10;4.20;;;;;;;;;;81044;275;3031347;-32
2023/12/29 01:56:37;;;;;;;6.30;4.40;;;;;;;;;;80983;283;3029150;-33
2023/12/29 01:59:15;;;;;;;7.50;4.50;;;;;;;;;;81015;275;3027358;-32
2023/12/29 02:02:01;;;;;;;7.70;4.50;;;;;;;;;;82341;283;3031021;-33
2023/12/29 02:04:37;;;;;;;6.80;4.50;;;;;;;;;;82357;272;3031506;-33
2023/12/29 02:07:13;;;;;;;7.20;4.50;;;;;;;;;;82332;275;3028403;-33
2023/12/29 02:09:51;;;;;;;6.70;4.20;;;;;;;;;;82395;283;3027387;-33
2023/12/29 02:12:28;;;;;;;7.50;4.30;;;;;;;;;;81172;280;3031882;-33
2023/12/29 02:15:04;;;;;;;7.50;4.30;;;;;;;;;;82415;272;3031766;-33
2023/12/29 02:17:47;;;;;;;7.00;4.30;;;;;;;;;;82457;272;3028012;-33
2023/12/29 02:20:23;;;;;;;7.20;4.10;;;;;;;;;;82412;275;3028396;-33
2023/12/29 02:23:00;;;;;;;6.80;4.00;;;;;;;;;;82343;283;3030954;-33
2023/12/29 02:25:36;;;;;;;6.30;4.10;;;;;;;;;;82390;275;3031408;-33
2023/12/29 02:28:19;;;;;;;6.00;4.20;;;;;;;;;;82373;275;3033976;-33
2023/12/29 02:31:00;;;;;;;7.10;4.00;;;;;;;;;;82383;275;3027701;-33
2023/12/29 02:33:39;;;;;;;6.90;4.00;;;;;;;;;;82377;275;3030546;-33
2023/12/29 02:36:18;;;;;;;7.30;4.00;;;;;;;;;;81030;275;3031183;-33
2023/12/29 02:38:57;;;;;;;7.00;4.10;;;;;;;;;;81048;275;3030197;-32
2023/12/29 02:41:34;;;;;;;6.70;4.30;;;;;;;;;;81068;275;3027060;-32
2023/12/29 02:44:11;;;;;;;6.70;4.10;;;;;;;;;;81044;272;3030588;-33
2023/12/29 02:46:47;;;;;;;7.10;4.20;;;;;;;;;;81078;275;3032191;-32
2023/12/29 02:49:23;;;;;;;6.80;4.30;;;;;;;;;;81036;275;3027859;-32
2023/12/29 02:52:01;;;;;;;6.50;3.80;;;;;;;;;;81054;275;3027848;-32
2023/12/29 02:54:43;;;;;;;6.20;3.90;;;;;;;;;;80926;283;3030813;-36
2023/12/29 02:57:19;;;;;;;6.50;3.90;;;;;;;;;;81025;283;3031262;-36
2023/12/29 02:59:55;;;;;;;7.10;4.30;;;;;;;;;;81072;272;3030302;-36
2023/12/29 03:02:34;;;;;;;6.00;3.90;;;;;;;;;;81039;275;3029415;-36
2023/12/29 03:05:11;;;;;;;6.70;4.20;;;;;;;;;;81026;272;3030648;-36
2023/12/29 03:07:47;;;;;;;6.20;3.80;;;;;;;;;;81065;275;3031808;-36
2023/12/29 03:10:23;;;;;;;7.20;4.20;;;;;;;;;;81072;275;3027962;-36
2023/12/29 03:13:02;;;;;;;6.60;4.20;;;;;;;;;;81049;283;3027676;-36
2023/12/29 03:15:39;;;;;;;7.50;4.00;;;;;;;;;;81070;275;3031270;-36
2023/12/29 03:18:16;;;;;;;6.30;3.70;;;;;;;;;;82029;272;3031290;-36
2023/12/29 03:20:53;;;;;;;6.30;3.80;;;;;;;;;;81068;272;3028647;-37
2023/12/29 03:23:30;;;;;;;6.20;3.70;;;;;;;;;;81055;272;3027197;-36
2023/12/29 03:26:06;;;;;;;7.70;4.20;;;;;;;;;;81071;275;3030447;-36
2023/12/29 03:28:44;;;;;;;6.60;4.10;;;;;;;;;;81022;275;3031726;-36
2023/12/29 03:31:21;;;;;;;5.90;3.70;;;;;;;;;;81039;275;3028261;-36
2023/12/29 03:33:58;;;;;;;7.00;4.00;;;;;;;;;;81040;284;3029170;-36
2023/12/29 03:36:39;;;;;;;6.70;4.40;;;;;;;;;;81042;280;3031610;-36
2023/12/29 03:39:16;;;;;;;6.70;3.90;;;;;;;;;;82016;275;3031568;-36
2023/12/29 03:41:52;;;;;;;6.50;3.80;;;;;;;;;;81038;272;3028439;-35
2023/12/29 03:44:30;;;;;;;5.90;3.70;;;;;;;;;;81078;272;3028019;-36
2023/12/29 03:47:07;;;;;;;6.20;3.80;;;;;;;;;;81075;275;3031507;-36
2023/12/29 03:49:43;;;;;;;6.80;3.90;;;;;;;;;;82341;280;3031185;-36
2023/12/29 03:52:20;;;;;;;7.00;3.80;;;;;;;;;;81057;280;3028479;-36
2023/12/29 03:54:56;;;;;;;6.60;3.90;;;;;;;;;;81060;275;3027967;-36
2023/12/29 03:57:35;;;;;;;6.60;4.10;;;;;;;;;;81042;283;3031242;-36
2023/12/29 04:00:16;;;;;;;6.80;3.70;;;;;;;;;;81060;275;3038019;-36
2023/12/29 04:02:52;;;;;;;6.20;4.00;;;;;;;;;;81225;275;3028600;-36
2023/12/29 04:05:28;;;;;;;6.40;3.90;;;;;;;;;;81091;275;3027772;-36
2023/12/29 04:08:07;;;;;;;6.00;3.60;;;;;;;;;;81043;272;3030614;-36
2023/12/29 04:10:43;;;;;;;6.50;3.90;;;;;;;;;;82036;283;3038046;-36
2023/12/29 04:13:19;;;;;;;6.80;4.00;;;;;;;;;;82279;275;3027912;-36
2023/12/29 04:15:55;;;;;;;7.40;4.00;;;;;;;;;;81048;275;3028550;-36
2023/12/29 04:18:32;;;;;;;6.20;3.90;;;;;;;;;;81016;275;3031418;-36
2023/12/29 04:21:13;;;;;;;6.90;3.90;;;;;;;;;;81071;283;3032044;-36
2023/12/29 04:23:49;;;;;;;7.20;3.80;;;;;;;;;;82393;280;3028171;-36
2023/12/29 04:26:25;;;;;;;7.70;4.10;;;;;;;;;;82451;279;3027883;-36
2023/12/29 04:29:01;;;;;;;7.90;4.00;;;;;;;;;;82336;283;3031362;-36
2023/12/29 04:31:37;;;;;;;7.00;3.90;;;;;;;;;;82468;283;3031539;-36
2023/12/29 04:34:13;;;;;;;6.40;3.80;;;;;;;;;;82411;280;3028382;-36
2023/12/29 04:36:50;;;;;;;6.50;4.00;;;;;;;;;;82248;275;3027386;-36
2023/12/29 04:39:25;;;;;;;6.40;3.70;;;;;;;;;;81065;283;3030642;-36
2023/12/29 04:42:07;;;;;;;6.80;3.80;;;;;;;;;;81049;275;3031531;-36
2023/12/29 04:44:42;;;;;;;6.90;3.90;;;;;;;;;;82390;283;3028601;-36
2023/12/29 04:47:18;;;;;;;5.70;3.90;;;;;;;;;;82422;280;3028741;-36
2023/12/29 04:49:55;;;;;;;6.40;3.70;;;;;;;;;;82358;272;3031197;-36
2023/12/29 04:52:31;;;;;;;7.00;4.20;;;;;;;;;;82421;280;3031793;-37
2023/12/29 04:55:08;;;;;;;6.40;3.70;;;;;;;;;;82382;275;3028398;-36
2023/12/29 04:57:44;;;;;;;7.90;3.70;;;;;;;;;;82459;272;3027994;-36
2023/12/29 05:00:21;;;;;;;6.40;3.30;;;;;;;;;;82233;283;3031619;-36
2023/12/29 05:02:57;;;;;;;6.60;3.80;;;;;;;;;;82428;272;3032146;-36
2023/12/29 05:05:33;;;;;;;6.30;3.90;;;;;;;;;;81290;275;3027956;-37
2023/12/29 05:08:10;;;;;;;5.90;3.60;;;;;;;;;;81091;275;3027592;-36
2023/12/29 05:10:46;;;;;;;6.60;3.80;;;;;;;;;;82381;280;3031079;-36
2023/12/29 05:13:23;;;;;;;6.00;3.80;;;;;;;;;;82311;275;3031944;-36
2023/12/29 05:15:59;;;;;;;6.30;3.70;;;;;;;;;;81036;272;3028560;-36
2023/12/29 05:18:38;;;;;;;7.20;3.80;;;;;;;;;;81022;275;3027225;-36
2023/12/29 05:21:23;;;;;;;6.70;3.90;;;;;;;;;;80998;272;3031257;-36
2023/12/29 05:24:06;;;;;;;6.70;3.80;;;;;;;;;;81050;272;3031374;-36
2023/12/29 05:26:42;;;;;;;6.10;3.70;;;;;;;;;;80986;275;3028622;-36
2023/12/29 05:29:19;;;;;;;6.70;4.00;;;;;;;;;;81026;275;3027949;-36
2023/12/29 05:31:56;;;;;;;6.40;3.70;;;;;;;;;;81012;275;3031087;-36
2023/12/29 05:34:35;;;;;;;5.90;3.60;;;;;;;;;;81036;275;3031733;-36
2023/12/29 05:37:15;;;;;;;6.10;3.70;;;;;;;;;;81023;280;3029255;-36
2023/12/29 05:39:56;;;;;;;5.90;3.70;;;;;;;;;;81067;272;3027890;-36
2023/12/29 05:42:37;;;;;;;6.00;3.70;;;;;;;;;;81023;275;3037489;-36
2023/12/29 05:45:18;;;;;;;6.40;3.70;;;;;;;;;;81055;283;3031596;-36
2023/12/29 05:47:54;;;;;;;5.70;3.50;;;;;;;;;;82406;280;3027891;-36
2023/12/29 05:50:30;;;;;;;5.70;3.60;;;;;;;;;;81263;271;3027478;-36
2023/12/29 05:53:08;;;;;;;6.00;3.70;;;;;;;;;;81065;275;3038096;-36
2023/12/29 05:55:45;;;;;;;6.10;3.80;;;;;;;;;;81044;271;3031603;-36
2023/12/29 05:58:23;;;;;;;6.50;3.80;;;;;;;;;;82177;275;3028428;-36
2023/12/29 06:01:05;;;;;;;6.10;3.90;;;;;;;;;;81037;275;3027734;-36
2023/12/29 06:03:45;;;;;;;6.10;3.60;;;;;;;;;;81036;275;3031091;-36
2023/12/29 06:06:23;;;;;;;5.40;3.60;;;;;;;;;;81042;275;3032124;-36
2023/12/29 06:09:01;;;;;;;6.30;3.70;;;;;;;;;;81049;275;3028338;-36
2023/12/29 06:11:44;;;;;;;6.10;3.70;;;;;;;;;;81052;283;3027206;-36
2023/12/29 06:14:24;;;;;;;7.10;3.90;;;;;;;;;;81060;275;3030595;-37
2023/12/29 06:17:02;;;;;;;6.30;3.80;;;;;;;;;;81064;275;3031673;-36
2023/12/29 06:19:40;;;;;;;6.70;3.80;;;;;;;;;;81049;272;3028697;-36
2023/12/29 06:22:20;;;;;;;5.40;3.30;;;;;;;;;;81032;275;3027734;-36
2023/12/29 06:24:56;;;;;;;6.40;3.60;;;;;;;;;;81019;283;3031167;-37
2023/12/29 06:27:37;;;;;;;5.70;3.50;;;;;;;;;;81721;272;3031890;-37
2023/12/29 06:30:15;;;;;;;6.20;3.60;;;;;;;;;;81049;272;3028564;-36
2023/12/29 06:32:52;;;;;;;5.30;3.40;;;;;;;;;;82382;280;3027379;-36
2023/12/29 06:35:29;;;;;;;5.60;3.60;;;;;;;;;;81168;272;3029278;-36
2023/12/29 06:38:08;;;;;;;6.00;3.50;;;;;;;;;;81052;272;3031365;-36
2023/12/29 06:40:44;;;;;;;6.10;3.90;;;;;;;;;;82415;272;3028540;-36
2023/12/29 06:43:21;;;;;;;5.80;3.60;;;;;;;;;;81631;275;3027724;-37
2023/12/29 06:46:00;;;;;;;6.50;3.60;;;;;;;;;;81010;283;3031402;-36
2023/12/29 06:48:40;;;;;;;6.30;3.50;;;;;;;;;;81055;272;3031698;-37
2023/12/29 06:51:23;;;;;;;5.90;3.50;;;;;;;;;;81030;272;3028170;-36
2023/12/29 06:54:02;;;;;;;5.40;3.30;;;;;;;;;;81024;275;3027269;-36
2023/12/29 06:56:41;;;;;;;6.40;3.50;;;;;;;;;;81053;275;3031570;-36
2023/12/29 06:59:20;;;;;;;6.40;3.40;;;;;;;;;;81060;275;3031916;-36
2023/12/29 07:01:59;;;;;;;6.60;3.70;;;;;;;;;;81045;275;3028362;-36
2023/12/29 07:04:37;;;;;;;5.60;3.30;;;;;;;;;;81063;272;3034536;-36
2023/12/29 07:07:15;;;;;;;5.90;3.50;;;;;;;;;;81049;280;3032526;-36
2023/12/29 07:09:52;;;;;;;6.20;3.50;;;;;;;;;;81023;280;3031532;-36
2023/12/29 07:12:30;;;;;;;5.50;3.50;;;;;;;;;;81013;283;3028082;-36
2023/12/29 07:15:08;;;;;;;7.00;3.50;;;;;;;;;;81077;275;3027700;-36
2023/12/29 07:17:45;;;;;;;6.70;3.50;;;;;;;;;;82445;275;3031754;-37
2023/12/29 07:20:21;;;;;;;5.80;3.50;;;;;;;;;;81169;275;3031842;-36
2023/12/29 07:22:59;;;;;;;6.00;3.50;;;;;;;;;;80972;275;3028337;-36
2023/12/29 07:25:40;;;;;;;5.40;3.10;;;;;;;;;;81001;280;3027550;-36
2023/12/29 07:28:18;;;;;;;6.50;3.30;;;;;;;;;;81021;275;3031123;-36
2023/12/29 07:30:55;;;;;;;5.80;3.50;;;;;;;;;;81013;272;3031863;-36
2023/12/29 07:33:34;;;;;;;6.00;3.40;;;;;;;;;;81039;272;3027758;-36
2023/12/29 07:36:15;;;;;;;5.80;3.50;;;;;;;;;;81315;275;3028344;-37
2023/12/29 07:38:55;;;;;;;5.40;3.20;;;;;;;;;;81043;275;3031199;-36
2023/12/29 07:41:31;;;;;;;6.00;3.70;;;;;;;;;;81034;275;3032361;-36
2023/12/29 07:44:12;;;;;;;6.30;3.50;;;;;;;;;;81011;272;3028654;-36
2023/12/29 07:46:51;;;;;;;6.40;3.60;;;;;;;;;;82171;272;3027939;-36
2023/12/29 07:49:30;;;;;;;5.60;3.20;;;;;;;;;;81065;275;3030709;-37
2023/12/29 07:52:09;;;;;;;5.50;3.30;;;;;;;;;;81013;275;3031902;-36
2023/12/29 07:54:46;;;;;;;7.10;3.60;;;;;;;;;;81018;272;3028147;-36
2023/12/29 07:57:23;;;;;;;5.10;3.20;;;;;;;;;;81017;275;3027195;-36
2023/12/29 08:00:02;;;;;;;6.80;3.50;;;;;;;;;;81062;275;3031214;-36
2023/12/29 08:02:38;;;;;;;5.80;3.70;;;;;;;;;;81042;272;3031482;-36
2023/12/29 08:05:15;;;;;;;6.60;3.50;;;;;;;;;;80986;275;3028475;-36
2023/12/29 08:07:51;;;;;;;6.50;3.60;;;;;;;;;;81170;275;3027995;-36
2023/12/29 08:10:29;;;;;;;6.10;3.40;;;;;;;;;;81023;275;3031037;-36
2023/12/29 08:13:08;;;;;;;5.90;3.10;;;;;;;;;;80991;275;3032108;-36
2023/12/29 08:15:44;;;;;;;7.00;3.40;;;;;;;;;;80989;275;3028698;-36
2023/12/29 08:18:20;;;;;;;5.80;3.30;;;;;;;;;;81036;275;3027692;-36
2023/12/29 08:20:59;;;;;;;5.60;3.20;;;;;;;;;;81043;275;3030786;-36
2023/12/29 08:23:38;;;;;;;6.10;3.30;;;;;;;;;;81017;275;3032007;-37
2023/12/29 08:26:14;;;;;;;5.90;3.20;;;;;;;;;;81062;275;3034066;-36
2023/12/29 08:28:51;;;;;;;6.30;3.40;;;;;;;;;;81563;275;3027890;-36
2023/12/29 08:31:29;;;;;;;6.00;3.60;;;;;;;;;;81069;275;3032278;-36
2023/12/29 08:34:05;;;;;;;5.90;3.30;;;;;;;;;;82412;280;3032731;-36
2023/12/29 08:36:43;;;;;;;6.20;3.20;;;;;;;;;;81037;275;3028822;-37
2023/12/29 08:39:22;;;;;;;5.70;3.30;;;;;;;;;;81054;272;3027286;-36
2023/12/29 08:41:59;;;;;;;5.50;3.00;;;;;;;;;;81031;275;3031124;-37
2023/12/29 08:44:36;;;;;;;5.80;3.00;;;;;;;;;;80953;284;3031425;-36
2023/12/29 08:47:13;;;;;;;5.70;3.00;;;;;;;;;;81042;275;3028644;-36
2023/12/29 08:49:49;;;;;;;5.90;3.40;;;;;;;;;;81074;275;3027864;-37
2023/12/29 08:52:26;;;;;;;5.50;3.20;;;;;;;;;;81079;275;3031036;-36
2023/12/29 08:55:02;;;;;;;5.50;3.20;;;;;;;;;;80999;275;3032402;-36
2023/12/29 08:57:38;;;;;;;5.20;2.90;;;;;;;;;;82438;272;3028214;-36
2023/12/29 09:00:15;;;;;;;5.30;3.00;;;;;;;;;;81208;276;3027440;-37
2023/12/29 09:02:52;;;;;;;5.60;2.90;;;;;;;;;;81096;275;3031316;-36
2023/12/29 09:05:29;;;;;;;5.90;3.00;;;;;;;;;;81033;271;3031256;-36
2023/12/29 09:08:05;;;;;;;5.10;3.00;;;;;;;;;;81061;275;3028767;-37
2023/12/29 09:10:41;;;;;;;5.10;2.90;;;;;;;;;;81305;275;3028179;-36
2023/12/29 09:13:18;;;;;;;4.90;2.70;;;;;;;;;;81001;275;3032012;-36
2023/12/29 09:15:55;;;;;;;5.40;2.90;;;;;;;;;;80958;275;3032123;-37
2023/12/29 09:18:32;;;;;;;5.20;2.90;;;;;;;;;;81218;272;3028712;-36
2023/12/29 09:21:10;;;;;;;5.40;3.10;;;;;;;;;;81020;275;3028194;-36
2023/12/29 09:23:47;;;;;;;5.10;2.80;;;;;;;;;;81021;283;3031332;-36
2023/12/29 09:26:27;;;;;;;5.60;2.90;;;;;;;;;;80982;283;3031542;-36
2023/12/29 09:29:05;;;;;;;5.00;2.60;;;;;;;;;;81022;275;3028402;-36
2023/12/29 09:31:42;;;;;;;4.80;2.80;;;;;;;;;;81737;280;3027508;-36
2023/12/29 09:34:18;;;;;;;5.20;2.90;;;;;;;;;;82358;280;3030882;-36
2023/12/29 09:36:54;;;;;;;5.30;2.90;;;;;;;;;;80276;272;3031763;-36
2023/12/29 09:39:34;;;;;;;5.20;2.90;;;;;;;;;;81014;275;3027961;-36
2023/12/29 09:42:16;;;;;;;5.10;2.80;;;;;;;;;;81054;275;3027752;-36
2023/12/29 09:44:53;;;;;;;5.20;3.00;;;;;;;;;;82425;279;3030552;-36
2023/12/29 09:47:30;;;;;;;5.20;3.20;;;;;;;;;;81252;280;3031210;-36
2023/12/29 09:50:13;;;;;;;5.20;2.90;;;;;;;;;;81127;280;3028216;-36
2023/12/29 09:52:55;;;;;;;6.10;3.30;;;;;;;;;;81025;283;3027477;-36
2023/12/29 09:55:33;;;;;;;7.00;3.50;;;;;;;;;;81040;275;3030509;-36
2023/12/29 09:58:11;;;;;;;8.00;3.50;;;;;;;;;;81001;275;3037867;-36
2023/12/29 10:00:52;;;;;;;9.00;3.70;;;;;;;;;;80981;275;3028356;-36
2023/12/29 10:03:27;;;;;;;7.10;3.80;;;;;;;;;;82115;280;3027113;-36
2023/12/29 10:06:10;;;;;;;8.10;4.10;;;;;;;;;;81157;282;3031226;-36
2023/12/29 10:08:51;;;;;;;7.60;3.50;;;;;;;;;;81170;274;3032075;-36
2023/12/29 10:11:32;;;;;;;8.90;3.90;;;;;;;;;;81147;282;3028117;-36
2023/12/29 10:14:24;;;;;;;7.70;3.50;;;;;;;;;;81169;274;3027693;-36
2023/12/29 10:17:13;;;;;;;6.80;3.40;;;;;;;;;;82487;281;3030386;-36
2023/12/29 10:20:00;;;;;;;7.00;3.50;;;;;;;;;;82503;278;3032467;-36
2023/12/29 10:22:49;;;;;;;6.90;3.80;;;;;;;;;;82047;270;3028135;-36
2023/12/29 10:25:26;;;;;;;7.70;4.00;;;;;;;;;;82534;274;3027205;-36
2023/12/29 10:28:02;;;;;;;7.80;4.00;;;;;;;;;;81393;274;3030710;-36
2023/12/29 10:30:40;;;;;;;6.60;4.00;;;;;;;;;;80984;282;3033577;-36
2023/12/29 10:33:24;;;;;;;8.40;4.40;;;;;;;;;;82110;277;3028103;-36
2023/12/29 10:36:07;;;;;;;7.00;4.50;;;;;;;;;;81183;281;3027484;-36
2023/12/29 10:38:48;;;;;;;6.80;4.60;;;;;;;;;;81579;274;3030677;-36
2023/12/29 10:41:26;;;;;;;8.30;4.60;;;;;;;;;;81137;281;3031551;-36
2023/12/29 10:44:10;;;;;;;7.10;4.50;;;;;;;;;;82490;274;3028607;-36
2023/12/29 10:46:46;;;;;;;7.80;4.40;;;;;;;;;;81999;278;3027900;-36
2023/12/29 10:49:24;;;;;;;7.00;4.10;;;;;;;;;;81176;274;3030471;-36
2023/12/29 10:52:14;;;;;;;6.50;4.40;;;;;;;;;;81174;270;3031215;-36
2023/12/29 10:54:51;;;;;;;6.60;4.20;;;;;;;;;;81618;274;3029285;-36
2023/12/29 10:57:27;;;;;;;6.30;4.10;;;;;;;;;;82507;274;3027736;-36
2023/12/29 11:00:05;;;;;;;6.30;4.10;;;;;;;;;;82478;274;3030670;-36
2023/12/29 11:02:42;;;;;;;7.30;4.30;;;;;;;;;;82480;281;3031603;-36
2023/12/29 11:05:17;;;;;;;6.50;5.00;;;;;;;;;;81259;274;3029586;-37
2023/12/29 11:07:54;;;;;;;6.70;4.80;;;;;;;;;;81165;274;3028609;-36
2023/12/29 11:10:31;;;;;;;6.00;4.10;;;;;;;;;;81182;282;3030510;-36
2023/12/29 11:13:07;;;;;;;6.90;4.40;;;;;;;;;;81776;274;3031753;-36
2023/12/29 11:15:46;;;;;;;6.40;4.30;;;;;;;;;;81017;275;3028359;-36
2023/12/29 11:18:22;;;;;;;6.50;4.00;;;;;;;;;;80986;275;3028210;-34
2023/12/29 11:21:00;;;;;;;7.10;4.50;;;;;;;;;;80965;282;3030974;-32
2023/12/29 11:23:36;;;;;;;6.80;5.40;;;;;;;;;;80978;275;3032678;-33
2023/12/29 11:26:12;;;;;;;7.50;5.80;;;;;;;;;;80978;275;3029255;-33
2023/12/29 11:28:49;;;;;;;8.00;5.60;;;;;;;;;;82421;282;3028413;-34
2023/12/29 11:31:25;;;;;;;8.10;5.30;;;;;;;;;;81581;282;3031800;-34
2023/12/29 11:34:09;;;;;;;7.10;5.30;;;;;;;;;;81139;271;3031520;-35
2023/12/29 11:36:49;;;;;;;7.00;5.20;;;;;;;;;;81094;274;3029337;-33
2023/12/29 11:39:34;;;;;;;6.40;4.80;;;;;;;;;;81086;274;3029467;-33
2023/12/29 11:42:20;;;;;;;7.10;4.50;;;;;;;;;;81149;282;3030576;-35
2023/12/29 11:44:56;;;;;;;6.00;4.40;;;;;;;;;;81145;271;3032572;-35
2023/12/29 11:47:41;;;;;;;7.00;4.50;;;;;;;;;;81408;274;3028916;-33
2023/12/29 11:50:30;;;;;;;6.50;4.40;;;;;;;;;;82486;275;3028716;-35
2023/12/29 11:53:06;;;;;;;6.40;4.40;;;;;;;;;;81139;274;3031035;-35
2023/12/29 11:55:44;;;;;;;6.00;4.30;;;;;;;;;;81126;274;3032012;-34
2023/12/29 11:58:30;;;;;;;5.70;4.00;;;;;;;;;;81047;274;3028689;-35
2023/12/29 12:01:07;;;;;;;6.40;4.30;;;;;;;;;;81998;278;3027122;-30
2023/12/29 12:03:44;;;;;;;6.10;4.10;;;;;;;;;;81187;274;3030626;-30
2023/12/29 12:06:40;;;;;;;5.90;3.70;;;;;;;;;;82498;278;3031311;-32
2023/12/29 12:09:25;;;;;;;5.60;3.70;;;;;;;;;;82446;278;3028047;-33
2023/12/29 12:12:01;;;;;;;6.10;3.80;;;;;;;;;;82455;282;3027317;-33
2023/12/29 12:14:55;;;;;;;5.90;3.60;;;;;;;;;;82505;274;3030750;-33
2023/12/29 12:17:39;;;;;;;6.80;3.60;;;;;;;;;;82227;271;3031466;-33
2023/12/29 12:20:17;;;;;;;5.20;3.30;;;;;;;;;;81019;274;3029389;-33
2023/12/29 12:23:01;;;;;;;5.80;3.50;;;;;;;;;;81070;274;3027616;-33
2023/12/29 12:25:39;;;;;;;6.00;3.80;;;;;;;;;;81368;274;3030410;-33
2023/12/29 12:28:17;;;;;;;6.00;3.40;;;;;;;;;;81100;274;3031311;-33
2023/12/29 12:30:55;;;;;;;5.60;3.70;;;;;;;;;;81032;274;3028167;-32
2023/12/29 12:33:31;;;;;;;5.80;3.70;;;;;;;;;;82466;278;3027722;-32
2023/12/29 12:36:09;;;;;;;5.50;3.30;;;;;;;;;;82469;274;3031069;-33
2023/12/29 12:39:02;;;;;;;7.90;4.30;;;;;;;;;;82365;276;3032695;-34
2023/12/29 12:41:38;;;;;;;7.40;4.30;;;;;;;;;;82443;278;3034574;-32
2023/12/29 12:44:15;;;;;;;7.30;4.30;;;;;;;;;;82505;270;3026956;-32
2023/12/29 12:47:01;;;;;;;6.80;4.00;;;;;;;;;;82491;274;3030929;-32
2023/12/29 12:49:37;;;;;;;7.50;4.20;;;;;;;;;;82482;271;3032572;-33
2023/12/29 12:52:13;;;;;;;7.40;4.00;;;;;;;;;;82495;278;3028679;-32
2023/12/29 12:54:53;;;;;;;6.00;3.70;;;;;;;;;;81674;274;3027554;-34
2023/12/29 12:57:30;;;;;;;6.70;3.60;;;;;;;;;;82511;278;3032011;-34
2023/12/29 13:00:09;;;;;;;6.10;3.50;;;;;;;;;;81847;278;3031185;-34
2023/12/29 13:02:48;;;;;;;6.20;3.40;;;;;;;;;;82528;271;3028275;-35
2023/12/29 13:05:27;;;;;;;5.40;3.40;;;;;;;;;;81342;270;3027428;-34
2023/12/29 13:08:06;;;;;;;6.20;3.10;;;;;;;;;;81096;274;3030913;-34
2023/12/29 13:10:45;;;;;;;7.20;3.30;;;;;;;;;;82428;274;3031073;-33
2023/12/29 13:13:21;;;;;;;6.60;3.00;;;;;;;;;;82416;279;3027981;-34
2023/12/29 13:15:58;;;;;;;7.20;3.20;;;;;;;;;;81754;274;3027981;-34
2023/12/29 13:18:36;;;;;;;5.70;3.00;;;;;;;;;;81106;274;3030605;-34
2023/12/29 13:21:13;;;;;;;6.70;3.10;;;;;;;;;;81071;274;3031941;-34
2023/12/29 13:23:49;;;;;;;5.50;2.80;;;;;;;;;;81129;274;3028543;-34
2023/12/29 13:26:26;;;;;;;6.00;2.90;;;;;;;;;;81118;274;3027518;-33
2023/12/29 13:29:05;;;;;;;5.20;2.70;;;;;;;;;;81152;274;3030904;-33
2023/12/29 13:31:47;;;;;;;6.00;2.70;;;;;;;;;;81123;274;3031553;-34
2023/12/29 13:34:35;;;;;;;5.70;2.70;;;;;;;;;;82357;280;3027875;-34
2023/12/29 13:37:19;;;;;;;5.70;2.80;;;;;;;;;;82528;271;3027821;-34
2023/12/29 13:40:03;;;;;;;5.30;2.90;;;;;;;;;;81933;271;3031172;-34
2023/12/29 13:42:41;;;;;;;5.10;2.60;;;;;;;;;;81050;274;3031534;-34
2023/12/29 13:45:19;;;;;;;5.10;2.90;;;;;;;;;;81114;282;3028443;-34
2023/12/29 13:47:57;;;;;;;5.90;2.70;;;;;;;;;;81118;274;3027737;-34
2023/12/29 13:50:34;;;;;;;5.10;2.50;;;;;;;;;;81127;274;3031309;-34
2023/12/29 13:53:17;;;;;;;5.40;2.60;;;;;;;;;;81135;274;3031522;-34
2023/12/29 13:55:53;;;;;;;6.40;2.80;;;;;;;;;;81144;274;3028655;-34
2023/12/29 13:58:32;;;;;;;5.40;2.80;;;;;;;;;;81116;274;3027346;-34
2023/12/29 14:01:11;;;;;;;5.80;2.70;;;;;;;;;;82494;274;3030526;-34
2023/12/29 14:03:56;;;;;;;5.70;2.70;;;;;;;;;;82479;282;3031726;-33
2023/12/29 14:06:53;;;;;;;6.20;2.70;;;;;;;;;;81355;274;3028913;-33
2023/12/29 14:09:29;;;;;;;4.80;2.50;;;;;;;;;;81186;274;3027980;-32
2023/12/29 14:12:07;;;;;;;5.10;2.50;;;;;;;;;;81129;271;3031450;-32
2023/12/29 14:14:43;;;;;;;6.10;2.60;;;;;;;;;;82557;278;3031151;-32
2023/12/29 14:17:26;;;;;;;6.50;2.90;;;;;;;;;;81907;274;3028880;-32
2023/12/29 14:20:06;;;;;;;4.90;2.40;;;;;;;;;;81182;274;3027838;-32
2023/12/29 14:22:42;;;;;;;5.10;2.70;;;;;;;;;;82454;271;3031152;-32
2023/12/29 14:25:21;;;;;;;5.40;2.60;;;;;;;;;;82479;274;3031609;-32
2023/12/29 14:27:57;;;;;;;5.60;2.70;;;;;;;;;;82491;271;3028024;-32
2023/12/29 14:30:33;;;;;;;4.60;2.50;;;;;;;;;;82474;274;3027867;-32
2023/12/29 14:33:09;;;;;;;4.90;2.40;;;;;;;;;;82437;282;3031211;-32
2023/12/29 14:35:45;;;;;;;5.10;2.60;;;;;;;;;;82529;271;3032714;-32
2023/12/29 14:38:22;;;;;;;5.50;2.50;;;;;;;;;;82501;278;3028430;-32
2023/12/29 14:40:58;;;;;;;5.60;2.30;;;;;;;;;;82506;274;3027339;-32
2023/12/29 14:43:35;;;;;;;6.10;2.90;;;;;;;;;;82422;274;3030660;-32
2023/12/29 14:46:11;;;;;;;6.00;3.00;;;;;;;;;;82569;271;3031625;-32
2023/12/29 14:48:47;;;;;;;5.70;2.60;;;;;;;;;;82467;271;3028701;-32
2023/12/29 14:51:23;;;;;;;5.50;2.40;;;;;;;;;;82518;274;3027296;-32
2023/12/29 14:53:59;;;;;;;6.40;2.70;;;;;;;;;;81536;274;3030362;-32
2023/12/29 14:56:35;;;;;;;5.90;2.70;;;;;;;;;;82546;271;3031730;-32
2023/12/29 14:59:11;;;;;;;5.60;2.90;;;;;;;;;;82131;278;3028024;-32
2023/12/29 15:01:48;;;;;;;5.50;2.70;;;;;;;;;;81176;274;3028135;-32
2023/12/29 15:04:25;;;;;;;5.20;2.80;;;;;;;;;;81130;274;3030844;-32
2023/12/29 15:07:01;;;;;;;5.30;2.90;;;;;;;;;;81141;282;3031143;-32
2023/12/29 15:09:39;;;;;;;5.10;2.80;;;;;;;;;;81187;274;3028572;-32
2023/12/29 15:12:15;;;;;;;5.50;2.60;;;;;;;;;;81127;274;3027224;-32
2023/12/29 15:14:51;;;;;;;5.70;2.70;;;;;;;;;;81152;274;3036891;-32
2023/12/29 15:17:27;;;;;;;5.70;2.60;;;;;;;;;;81227;274;3031715;-32
2023/12/29 15:20:04;;;;;;;5.10;2.60;;;;;;;;;;81146;274;3028705;-32
2023/12/29 15:22:43;;;;;;;4.80;2.40;;;;;;;;;;81154;274;3028347;-32
2023/12/29 15:25:20;;;;;;;5.00;2.50;;;;;;;;;;81163;278;3038077;-32
2023/12/29 15:27:56;;;;;;;4.70;2.50;;;;;;;;;;82454;271;3031855;-32
2023/12/29 15:30:37;;;;;;;4.90;2.60;;;;;;;;;;81643;282;3028351;-32
2023/12/29 15:33:14;;;;;;;5.30;2.60;;;;;;;;;;81162;274;3027913;-32
2023/12/29 15:35:50;;;;;;;4.90;2.50;;;;;;;;;;81102;282;3029513;-32